createdAt,value
2022-11-21T00:00:18.282Z,1002.95
2022-11-21T00:01:22.439Z,1002.96
2022-11-21T00:02:26.539Z,1002.95
2022-11-21T00:03:30.658Z,1002.95
2022-11-21T00:04:34.701Z,1002.96
2022-11-21T00:05:38.943Z,1002.95
2022-11-21T00:06:43.064Z,1002.95
2022-11-21T00:07:47.113Z,1002.95
2022-11-21T00:08:51.211Z,1002.94
2022-11-21T00:09:55.441Z,1002.95
2022-11-21T00:10:59.436Z,1002.93
2022-11-21T00:12:03.606Z,1002.92
2022-11-21T00:13:07.741Z,1002.94
2022-11-21T00:14:11.843Z,1002.92
2022-11-21T00:15:16.114Z,1002.90
2022-11-21T00:16:20.216Z,1002.89
2022-11-21T00:17:24.243Z,1002.87
2022-11-21T00:18:28.472Z,1002.87
2022-11-21T00:19:32.557Z,1002.87
2022-11-21T00:20:36.622Z,1002.88
2022-11-21T00:21:40.769Z,1002.88
2022-11-21T00:22:45.034Z,1002.88
2022-11-21T00:23:49.024Z,1002.87
2022-11-21T00:24:54.426Z,1002.88
2022-11-21T00:25:57.361Z,1002.89
2022-11-21T00:27:01.395Z,1002.88
2022-11-21T00:28:05.599Z,1002.88
2022-11-21T00:29:09.619Z,1002.86
2022-11-21T00:30:13.814Z,1002.87
2022-11-21T00:31:17.836Z,1002.88
2022-11-21T00:32:22.030Z,1002.83
2022-11-21T00:33:26.056Z,1002.83
2022-11-21T00:34:30.226Z,1002.82
2022-11-21T00:35:34.323Z,1002.80
2022-11-21T00:36:38.477Z,1002.81
2022-11-21T00:37:42.582Z,1002.80
2022-11-21T00:38:46.571Z,1002.81
2022-11-21T00:39:50.769Z,1002.82
2022-11-21T00:40:54.874Z,1002.79
2022-11-21T00:41:59.041Z,1002.80
2022-11-21T00:43:03.070Z,1002.79
2022-11-21T00:44:07.276Z,1002.77
2022-11-21T00:45:11.477Z,1002.76
2022-11-21T00:46:15.566Z,1002.75
2022-11-21T00:47:19.667Z,1002.77
2022-11-21T00:48:23.769Z,1002.76
2022-11-21T00:49:27.813Z,1002.76
2022-11-21T00:50:31.881Z,1002.76
2022-11-21T00:51:35.960Z,1002.75
2022-11-21T00:52:40.173Z,1002.74
2022-11-21T00:53:44.198Z,1002.74
2022-11-21T00:54:48.376Z,1002.76
2022-11-21T00:55:52.502Z,1002.74
2022-11-21T00:56:56.676Z,1002.74
2022-11-21T00:58:00.804Z,1002.76
2022-11-21T00:59:04.801Z,1002.78
2022-11-21T01:00:08.972Z,1002.82
2022-11-21T01:01:13.247Z,1002.81
2022-11-21T01:02:17.264Z,1002.85
2022-11-21T01:03:21.234Z,1002.88
2022-11-21T01:04:25.698Z,1002.83
2022-11-21T01:05:29.548Z,1002.80
2022-11-21T01:06:33.664Z,1002.78
2022-11-21T01:07:37.899Z,1002.76
2022-11-21T01:08:42.025Z,1002.76
2022-11-21T01:09:45.982Z,1002.75
2022-11-21T01:10:50.172Z,1002.75
2022-11-21T01:11:54.293Z,1002.74
2022-11-21T01:12:58.505Z,1002.73
2022-11-21T01:14:02.694Z,1002.71
2022-11-21T01:15:06.881Z,1002.70
2022-11-21T01:16:10.981Z,1002.69
2022-11-21T01:17:18.054Z,1002.68
2022-11-21T01:18:21.181Z,1002.65
2022-11-21T01:19:25.260Z,1002.62
2022-11-21T01:20:29.483Z,1002.62
2022-11-21T01:21:33.516Z,1002.58
2022-11-21T01:22:37.621Z,1002.57
2022-11-21T01:23:41.863Z,1002.55
2022-11-21T01:24:45.965Z,1002.54
2022-11-21T01:25:50.181Z,1002.55
2022-11-21T01:26:54.377Z,1002.53
2022-11-21T01:27:58.419Z,1002.54
2022-11-21T01:29:02.568Z,1002.51
2022-11-21T01:30:06.575Z,1002.51
2022-11-21T01:31:10.683Z,1002.48
2022-11-21T01:32:14.831Z,1002.48
2022-11-21T01:33:18.948Z,1002.49
2022-11-21T01:34:23.103Z,1002.49
2022-11-21T01:35:27.294Z,1002.50
2022-11-21T01:36:31.371Z,1002.48
2022-11-21T01:37:35.580Z,1002.50
2022-11-21T01:38:39.669Z,1002.46
2022-11-21T01:39:43.812Z,1002.45
2022-11-21T01:40:48.052Z,1002.45
2022-11-21T01:41:52.091Z,1002.42
2022-11-21T01:42:56.315Z,1002.42
2022-11-21T01:44:00.423Z,1002.41
2022-11-21T01:45:04.574Z,1002.39
2022-11-21T01:46:08.755Z,1002.37
2022-11-21T01:47:12.829Z,1002.39
2022-11-21T01:48:16.874Z,1002.38
2022-11-21T01:49:21.055Z,1002.37
2022-11-21T01:50:25.237Z,1002.38
2022-11-21T01:51:29.410Z,1002.36
2022-11-21T01:52:33.496Z,1002.36
2022-11-21T01:53:37.657Z,1002.34
2022-11-21T01:54:41.737Z,1002.35
2022-11-21T01:55:45.897Z,1002.36
2022-11-21T01:56:50.036Z,1002.34
2022-11-21T01:57:54.150Z,1002.32
2022-11-21T01:58:58.381Z,1002.29
2022-11-21T02:00:02.333Z,1002.32
2022-11-21T02:01:06.692Z,1002.32
2022-11-21T02:02:10.694Z,1002.36
2022-11-21T02:03:14.712Z,1002.38
2022-11-21T02:04:18.894Z,1002.37
2022-11-21T02:05:23.017Z,1002.38
2022-11-21T02:06:27.097Z,1002.38
2022-11-21T02:07:31.298Z,1002.36
2022-11-21T02:08:35.367Z,1002.38
2022-11-21T02:09:39.526Z,1002.38
2022-11-21T02:10:43.549Z,1002.41
2022-11-21T02:11:47.721Z,1002.43
2022-11-21T02:12:51.765Z,1002.42
2022-11-21T02:13:55.949Z,1002.45
2022-11-21T02:14:59.956Z,1002.46
2022-11-21T02:16:04.149Z,1002.44
2022-11-21T02:17:08.307Z,1002.43
2022-11-21T02:18:12.345Z,1002.40
2022-11-21T02:19:16.479Z,1002.38
2022-11-21T02:20:20.586Z,1002.37
2022-11-21T02:21:24.831Z,1002.37
2022-11-21T02:22:29.018Z,1002.36
2022-11-21T02:23:32.979Z,1002.36
2022-11-21T02:24:37.317Z,1002.34
2022-11-21T02:25:41.293Z,1002.32
2022-11-21T02:26:45.476Z,1002.30
2022-11-21T02:27:49.633Z,1002.29
2022-11-21T02:28:53.804Z,1002.27
2022-11-21T02:29:57.937Z,1002.28
2022-11-21T02:31:01.963Z,1002.26
2022-11-21T02:32:06.236Z,1002.30
2022-11-21T02:33:10.424Z,1002.29
2022-11-21T02:34:14.504Z,1002.28
2022-11-21T02:35:18.530Z,1002.26
2022-11-21T02:36:22.733Z,1002.27
2022-11-21T02:37:26.850Z,1002.27
2022-11-21T02:38:30.950Z,1002.28
2022-11-21T02:39:35.118Z,1002.28
2022-11-21T02:40:39.264Z,1002.27
2022-11-21T02:41:43.272Z,1002.24
2022-11-21T02:42:52.361Z,1002.23
2022-11-21T02:43:51.549Z,1002.23
2022-11-21T02:44:55.668Z,1002.23
2022-11-21T02:45:59.885Z,1002.20
2022-11-21T02:47:03.967Z,1002.23
2022-11-21T02:48:08.069Z,1002.23
2022-11-21T02:49:12.223Z,1002.23
2022-11-21T02:50:16.348Z,1002.23
2022-11-21T02:51:20.479Z,1002.25
2022-11-21T02:52:24.605Z,1002.27
2022-11-21T02:53:28.759Z,1002.28
2022-11-21T02:54:32.855Z,1002.29
2022-11-21T02:55:36.903Z,1002.30
2022-11-21T02:56:41.084Z,1002.30
2022-11-21T02:57:45.206Z,1002.29
2022-11-21T02:58:49.227Z,1002.28
2022-11-21T02:59:53.416Z,1002.27
2022-11-21T03:00:57.599Z,1002.27
2022-11-21T03:02:01.696Z,1002.28
2022-11-21T03:03:05.724Z,1002.28
2022-11-21T03:04:09.944Z,1002.29
2022-11-21T03:05:13.986Z,1002.30
2022-11-21T03:06:18.175Z,1002.29
2022-11-21T03:07:22.291Z,1002.28
2022-11-21T03:08:26.388Z,1002.27
2022-11-21T03:09:30.501Z,1002.25
2022-11-21T03:10:34.505Z,1002.24
2022-11-21T03:11:38.797Z,1002.23
2022-11-21T03:12:42.860Z,1002.22
2022-11-21T03:13:47.029Z,1002.22
2022-11-21T03:14:51.153Z,1002.21
2022-11-21T03:15:55.275Z,1002.19
2022-11-21T03:16:59.405Z,1002.16
2022-11-21T03:18:03.559Z,1002.15
2022-11-21T03:19:07.667Z,1002.16
2022-11-21T03:20:11.878Z,1002.15
2022-11-21T03:21:16.074Z,1002.14
2022-11-21T03:22:20.231Z,1002.11
2022-11-21T03:23:27.177Z,1002.14
2022-11-21T03:24:30.449Z,1002.14
2022-11-21T03:25:34.359Z,1002.15
2022-11-21T03:26:38.568Z,1002.15
2022-11-21T03:27:42.691Z,1002.13
2022-11-21T03:28:46.814Z,1002.14
2022-11-21T03:29:51.083Z,1002.16
2022-11-21T03:30:55.066Z,1002.15
2022-11-21T03:31:59.270Z,1002.14
2022-11-21T03:33:03.419Z,1002.11
2022-11-21T03:34:07.620Z,1002.10
2022-11-21T03:35:11.601Z,1002.11
2022-11-21T03:36:15.671Z,1002.13
2022-11-21T03:37:19.949Z,1002.12
2022-11-21T03:38:24.085Z,1002.11
2022-11-21T03:39:28.166Z,1002.10
2022-11-21T03:40:32.176Z,1002.09
2022-11-21T03:41:36.347Z,1002.10
2022-11-21T03:42:40.563Z,1002.12
2022-11-21T03:43:44.644Z,1002.11
2022-11-21T03:44:48.770Z,1002.13
2022-11-21T03:45:52.847Z,1002.13
2022-11-21T03:46:57.073Z,1002.14
2022-11-21T03:48:01.248Z,1002.14
2022-11-21T03:49:05.457Z,1002.16
2022-11-21T03:50:09.549Z,1002.15
2022-11-21T03:51:13.684Z,1002.14
2022-11-21T03:52:17.782Z,1002.13
2022-11-21T03:53:22.057Z,1002.13
2022-11-21T03:54:26.557Z,1002.16
2022-11-21T03:55:30.227Z,1002.13
2022-11-21T03:56:34.566Z,1002.14
2022-11-21T03:57:38.687Z,1002.17
2022-11-21T03:58:42.773Z,1002.15
2022-11-21T03:59:46.987Z,1002.15
2022-11-21T04:00:51.036Z,1002.15
2022-11-21T04:01:55.237Z,1002.16
2022-11-21T04:02:59.304Z,1002.15
2022-11-21T04:04:03.541Z,1002.12
2022-11-21T04:05:07.590Z,1002.16
2022-11-21T04:06:11.740Z,1002.17
2022-11-21T04:07:15.814Z,1002.14
2022-11-21T04:08:19.944Z,1002.15
2022-11-21T04:09:27.092Z,1002.11
2022-11-21T04:10:30.134Z,1002.09
2022-11-21T04:11:34.282Z,1002.09
2022-11-21T04:12:38.502Z,1002.10
2022-11-21T04:13:42.608Z,1002.08
2022-11-21T04:14:46.629Z,1002.07
2022-11-21T04:15:50.809Z,1002.07
2022-11-21T04:16:55.019Z,1002.05
2022-11-21T04:17:59.194Z,1002.05
2022-11-21T04:19:03.333Z,1002.08
2022-11-21T04:20:07.451Z,1002.07
2022-11-21T04:21:11.501Z,1002.08
2022-11-21T04:22:15.653Z,1002.07
2022-11-21T04:23:19.650Z,1002.07
2022-11-21T04:24:23.765Z,1002.05
2022-11-21T04:25:28.067Z,1002.07
2022-11-21T04:26:32.000Z,1002.05
2022-11-21T04:27:36.199Z,1002.05
2022-11-21T04:28:40.205Z,1002.08
2022-11-21T04:29:44.397Z,1002.05
2022-11-21T04:30:48.512Z,1002.04
2022-11-21T04:31:52.601Z,1002.07
2022-11-21T04:32:56.655Z,1002.08
2022-11-21T04:34:00.827Z,1002.07
2022-11-21T04:35:05.099Z,1002.03
2022-11-21T04:36:09.182Z,1002.03
2022-11-21T04:37:13.452Z,1002.02
2022-11-21T04:38:17.481Z,1002.04
2022-11-21T04:39:21.594Z,1002.04
2022-11-21T04:40:25.739Z,1002.07
2022-11-21T04:41:29.840Z,1002.05
2022-11-21T04:42:33.846Z,1002.05
2022-11-21T04:43:38.071Z,1002.05
2022-11-21T04:44:42.138Z,1002.09
2022-11-21T04:45:46.247Z,1002.10
2022-11-21T04:46:50.371Z,1002.12
2022-11-21T04:47:54.476Z,1002.11
2022-11-21T04:48:58.615Z,1002.12
2022-11-21T04:50:02.753Z,1002.08
2022-11-21T04:51:06.858Z,1002.06
2022-11-21T04:52:11.008Z,1002.03
2022-11-21T04:53:15.146Z,1002.01
2022-11-21T04:54:19.419Z,1002.02
2022-11-21T04:55:23.380Z,1002.00
2022-11-21T04:56:27.530Z,1002.01
2022-11-21T04:57:31.675Z,1002.03
2022-11-21T04:58:35.687Z,1002.03
2022-11-21T04:59:39.840Z,1002.04
2022-11-21T05:00:43.981Z,1002.09
2022-11-21T05:01:48.119Z,1002.08
2022-11-21T05:02:52.240Z,1002.08
2022-11-21T05:03:56.356Z,1002.09
2022-11-21T05:05:00.571Z,1002.09
2022-11-21T05:06:04.643Z,1002.10
2022-11-21T05:07:08.918Z,1002.10
2022-11-21T05:08:12.989Z,1002.10
2022-11-21T05:09:16.986Z,1002.09
2022-11-21T05:10:21.084Z,1002.12
2022-11-21T05:11:25.370Z,1002.13
2022-11-21T05:12:29.445Z,1002.14
2022-11-21T05:13:33.698Z,1002.11
2022-11-21T05:14:37.854Z,1002.09
2022-11-21T05:15:41.844Z,1002.09
2022-11-21T05:16:45.933Z,1002.09
2022-11-21T05:17:49.998Z,1002.09
2022-11-21T05:18:54.215Z,1002.13
2022-11-21T05:19:58.434Z,1002.13
2022-11-21T05:21:02.405Z,1002.10
2022-11-21T05:22:06.609Z,1002.08
2022-11-21T05:23:10.738Z,1002.07
2022-11-21T05:24:14.855Z,1002.06
2022-11-21T05:25:18.990Z,1002.08
2022-11-21T05:26:23.101Z,1002.07
2022-11-21T05:27:27.250Z,1002.06
2022-11-21T05:28:31.473Z,1002.06
2022-11-21T05:29:35.559Z,1002.04
2022-11-21T05:30:39.693Z,1002.01
2022-11-21T05:31:43.785Z,1002.02
2022-11-21T05:32:47.915Z,1002.02
2022-11-21T05:33:52.133Z,1002.02
2022-11-21T05:34:56.196Z,1002.02
2022-11-21T05:36:00.351Z,1002.04
2022-11-21T05:37:04.352Z,1002.03
2022-11-21T05:38:08.633Z,1002.06
2022-11-21T05:39:12.829Z,1002.07
2022-11-21T05:40:16.912Z,1002.07
2022-11-21T05:41:20.933Z,1002.05
2022-11-21T05:42:25.091Z,1002.07
2022-11-21T05:43:29.229Z,1002.06
2022-11-21T05:44:33.391Z,1002.05
2022-11-21T05:45:37.562Z,1002.03
2022-11-21T05:46:41.682Z,1002.02
2022-11-21T05:47:45.701Z,1002.02
2022-11-21T05:48:50.046Z,1002.02
2022-11-21T05:49:54.129Z,1002.02
2022-11-21T05:50:58.250Z,1002.02
2022-11-21T05:52:02.384Z,1001.97
2022-11-21T05:53:06.526Z,1001.93
2022-11-21T05:54:10.602Z,1001.94
2022-11-21T05:55:14.635Z,1001.95
2022-11-21T05:56:18.788Z,1001.98
2022-11-21T05:57:22.940Z,1002.00
2022-11-21T05:58:27.022Z,1001.99
2022-11-21T05:59:31.138Z,1001.97
2022-11-21T06:00:35.263Z,1001.98
2022-11-21T06:01:39.324Z,1001.97
2022-11-21T06:02:43.404Z,1001.98
2022-11-21T06:03:47.539Z,1001.99
2022-11-21T06:04:51.788Z,1002.00
2022-11-21T06:05:56.173Z,1002.03
2022-11-21T06:07:00.412Z,1002.04
2022-11-21T06:08:04.261Z,1002.04
2022-11-21T06:09:08.476Z,1002.07
2022-11-21T06:10:12.638Z,1002.09
2022-11-21T06:11:16.723Z,1002.10
2022-11-21T06:12:25.193Z,1002.09
2022-11-21T06:13:24.949Z,1002.10
2022-11-21T06:14:29.381Z,1002.13
2022-11-21T06:15:33.097Z,1002.13
2022-11-21T06:16:37.324Z,1002.16
2022-11-21T06:17:41.413Z,1002.17
2022-11-21T06:18:45.509Z,1002.18
2022-11-21T06:19:49.663Z,1002.18
2022-11-21T06:20:53.888Z,1002.17
2022-11-21T06:21:57.956Z,1002.17
2022-11-21T06:23:01.995Z,1002.14
2022-11-21T06:24:06.156Z,1002.14
2022-11-21T06:25:10.424Z,1002.15
2022-11-21T06:26:14.508Z,1002.16
2022-11-21T06:27:18.508Z,1002.16
2022-11-21T06:28:22.703Z,1002.16
2022-11-21T06:29:26.823Z,1002.16
2022-11-21T06:30:30.946Z,1002.16
2022-11-21T06:31:35.075Z,1002.15
2022-11-21T06:32:39.249Z,1002.16
2022-11-21T06:33:43.337Z,1002.20
2022-11-21T06:34:47.363Z,1002.21
2022-11-21T06:35:51.570Z,1002.23
2022-11-21T06:36:55.682Z,1002.24
2022-11-21T06:37:59.819Z,1002.23
2022-11-21T06:39:03.971Z,1002.25
2022-11-21T06:40:08.076Z,1002.24
2022-11-21T06:41:12.112Z,1002.21
2022-11-21T06:42:16.282Z,1002.21
2022-11-21T06:43:20.341Z,1002.23
2022-11-21T06:44:24.627Z,1002.20
2022-11-21T06:45:28.720Z,1002.22
2022-11-21T06:46:32.880Z,1002.24
2022-11-21T06:47:37.107Z,1002.24
2022-11-21T06:48:41.180Z,1002.26
2022-11-21T06:49:45.356Z,1002.30
2022-11-21T06:50:49.517Z,1002.31
2022-11-21T06:51:53.695Z,1002.31
2022-11-21T06:52:57.639Z,1002.34
2022-11-21T06:54:01.855Z,1002.32
2022-11-21T06:55:05.977Z,1002.32
2022-11-21T06:56:10.137Z,1002.30
2022-11-21T06:57:14.240Z,1002.30
2022-11-21T06:58:18.240Z,1002.32
2022-11-21T06:59:22.386Z,1002.30
2022-11-21T07:00:26.540Z,1002.29
2022-11-21T07:01:30.732Z,1002.27
2022-11-21T07:02:34.803Z,1002.27
2022-11-21T07:03:38.926Z,1002.29
2022-11-21T07:04:43.054Z,1002.26
2022-11-21T07:05:47.251Z,1002.32
2022-11-21T07:06:51.433Z,1002.31
2022-11-21T07:07:55.427Z,1002.33
2022-11-21T07:09:31.164Z,1002.34
2022-11-21T07:10:03.720Z,1002.32
2022-11-21T07:11:24.510Z,1002.30
2022-11-21T07:12:11.953Z,1002.31
2022-11-21T07:13:16.081Z,1002.33
2022-11-21T07:14:20.142Z,1002.33
2022-11-21T07:15:24.270Z,1002.36
2022-11-21T07:16:28.392Z,1002.36
2022-11-21T07:17:32.531Z,1002.34
2022-11-21T07:18:36.655Z,1002.30
2022-11-21T07:19:41.234Z,1002.30
2022-11-21T07:20:44.863Z,1002.33
2022-11-21T07:21:49.069Z,1002.33
2022-11-21T07:22:53.062Z,1002.32
2022-11-21T07:23:57.233Z,1002.33
2022-11-21T07:25:01.351Z,1002.33
2022-11-21T07:26:05.453Z,1002.34
2022-11-21T07:27:09.670Z,1002.34
2022-11-21T07:28:13.748Z,1002.34
2022-11-21T07:29:17.887Z,1002.35
2022-11-21T07:30:24.976Z,1002.35
2022-11-21T07:31:28.135Z,1002.36
2022-11-21T07:32:32.280Z,1002.36
2022-11-21T07:33:36.376Z,1002.37
2022-11-21T07:34:40.423Z,1002.36
2022-11-21T07:35:44.620Z,1002.36
2022-11-21T07:36:48.632Z,1002.38
2022-11-21T07:37:52.800Z,1002.40
2022-11-21T07:38:56.912Z,1002.40
2022-11-21T07:40:01.129Z,1002.40
2022-11-21T07:41:05.311Z,1002.42
2022-11-21T07:42:09.419Z,1002.43
2022-11-21T07:43:13.471Z,1002.46
2022-11-21T07:44:17.685Z,1002.44
2022-11-21T07:45:21.774Z,1002.46
2022-11-21T07:46:25.914Z,1002.46
2022-11-21T07:47:30.010Z,1002.44
2022-11-21T07:48:34.257Z,1002.44
2022-11-21T07:49:38.475Z,1002.43
2022-11-21T07:50:42.531Z,1002.45
2022-11-21T07:51:46.623Z,1002.46
2022-11-21T07:52:50.667Z,1002.45
2022-11-21T07:53:54.944Z,1002.46
2022-11-21T07:54:58.881Z,1002.44
2022-11-21T07:56:03.194Z,1002.45
2022-11-21T07:57:07.249Z,1002.44
2022-11-21T07:58:11.374Z,1002.45
2022-11-21T07:59:15.507Z,1002.44
2022-11-21T08:00:19.593Z,1002.43
2022-11-21T08:01:23.762Z,1002.41
2022-11-21T08:02:27.932Z,1002.41
2022-11-21T08:03:32.036Z,1002.41
2022-11-21T08:04:36.098Z,1002.43
2022-11-21T08:05:40.292Z,1002.43
2022-11-21T08:06:44.438Z,1002.45
2022-11-21T08:07:48.466Z,1002.46
2022-11-21T08:08:52.751Z,1002.44
2022-11-21T08:09:56.945Z,1002.44
2022-11-21T08:11:01.105Z,1002.41
2022-11-21T08:12:05.172Z,1002.41
2022-11-21T08:13:09.398Z,1002.41
2022-11-21T08:14:13.501Z,1002.41
2022-11-21T08:15:17.606Z,1002.40
2022-11-21T08:16:21.762Z,1002.40
2022-11-21T08:17:25.927Z,1002.38
2022-11-21T08:18:30.046Z,1002.37
2022-11-21T08:19:34.047Z,1002.39
2022-11-21T08:20:38.231Z,1002.39
2022-11-21T08:21:42.237Z,1002.38
2022-11-21T08:22:46.427Z,1002.40
2022-11-21T08:23:50.475Z,1002.42
2022-11-21T08:24:54.552Z,1002.44
2022-11-21T08:25:58.878Z,1002.45
2022-11-21T08:27:02.817Z,1002.49
2022-11-21T08:28:07.097Z,1002.50
2022-11-21T08:29:11.159Z,1002.53
2022-11-21T08:30:15.277Z,1002.56
2022-11-21T08:31:19.309Z,1002.57
2022-11-21T08:32:23.422Z,1002.58
2022-11-21T08:33:27.620Z,1002.58
2022-11-21T08:34:31.820Z,1002.58
2022-11-21T08:35:35.849Z,1002.53
2022-11-21T08:36:40.017Z,1002.52
2022-11-21T08:37:44.210Z,1002.50
2022-11-21T08:38:48.271Z,1002.50
2022-11-21T08:39:52.415Z,1002.49
2022-11-21T08:40:56.449Z,1002.48
2022-11-21T08:42:00.765Z,1002.49
2022-11-21T08:43:04.914Z,1002.48
2022-11-21T08:44:13.876Z,1002.44
2022-11-21T08:45:13.185Z,1002.39
2022-11-21T08:46:17.376Z,1002.37
2022-11-21T08:47:21.496Z,1002.39
2022-11-21T08:48:25.717Z,1002.43
2022-11-21T08:49:29.716Z,1002.48
2022-11-21T08:50:33.915Z,1002.49
2022-11-21T08:51:38.043Z,1002.48
2022-11-21T08:52:42.260Z,1002.47
2022-11-21T08:53:46.215Z,1002.46
2022-11-21T08:54:50.367Z,1002.48
2022-11-21T08:55:54.499Z,1002.53
2022-11-21T08:56:58.515Z,1002.53
2022-11-21T08:58:02.717Z,1002.56
2022-11-21T08:59:06.666Z,1002.55
2022-11-21T09:00:10.826Z,1002.54
2022-11-21T09:01:14.990Z,1002.56
2022-11-21T09:02:19.048Z,1002.55
2022-11-21T09:03:26.781Z,1002.55
2022-11-21T09:04:27.627Z,1002.49
2022-11-21T09:05:31.528Z,1002.49
2022-11-21T09:06:35.513Z,1002.51
2022-11-21T09:07:39.754Z,1002.54
2022-11-21T09:08:43.821Z,1002.55
2022-11-21T09:09:47.832Z,1002.56
2022-11-21T09:10:52.063Z,1002.56
2022-11-21T09:11:56.289Z,1002.56
2022-11-21T09:13:00.325Z,1002.57
2022-11-21T09:14:04.442Z,1002.58
2022-11-21T09:15:08.579Z,1002.58
2022-11-21T09:16:16.279Z,1002.59
2022-11-21T09:17:16.729Z,1002.57
2022-11-21T09:18:20.915Z,1002.56
2022-11-21T09:19:25.164Z,1002.58
2022-11-21T09:20:29.341Z,1002.58
2022-11-21T09:21:33.377Z,1002.58
2022-11-21T09:22:37.623Z,1002.60
2022-11-21T09:23:41.671Z,1002.63
2022-11-21T09:24:46.974Z,1002.63
2022-11-21T09:25:49.893Z,1002.63
2022-11-21T09:26:54.041Z,1002.62
2022-11-21T09:27:58.176Z,1002.61
2022-11-21T09:29:02.178Z,1002.61
2022-11-21T09:30:06.316Z,1002.63
2022-11-21T09:31:10.376Z,1002.63
2022-11-21T09:32:14.552Z,1002.64
2022-11-21T09:33:18.730Z,1002.66
2022-11-21T09:34:22.872Z,1002.67
2022-11-21T09:35:26.996Z,1002.68
2022-11-21T09:36:31.112Z,1002.67
2022-11-21T09:37:35.215Z,1002.66
2022-11-21T09:38:39.342Z,1002.65
2022-11-21T09:39:43.512Z,1002.67
2022-11-21T09:40:47.611Z,1002.65
2022-11-21T09:41:51.738Z,1002.62
2022-11-21T09:42:55.869Z,1002.63
2022-11-21T09:43:59.979Z,1002.65
2022-11-21T09:45:04.081Z,1002.66
2022-11-21T09:46:08.231Z,1002.63
2022-11-21T09:47:12.295Z,1002.65
2022-11-21T09:48:16.542Z,1002.64
2022-11-21T09:49:20.547Z,1002.61
2022-11-21T09:50:24.778Z,1002.63
2022-11-21T09:51:28.872Z,1002.62
2022-11-21T09:52:32.977Z,1002.60
2022-11-21T09:53:37.099Z,1002.63
2022-11-21T09:54:41.238Z,1002.62
2022-11-21T09:55:45.369Z,1002.65
2022-11-21T09:56:49.411Z,1002.65
2022-11-21T09:57:53.504Z,1002.63
2022-11-21T09:58:57.719Z,1002.64
2022-11-21T10:00:01.836Z,1002.68
2022-11-21T10:01:06.011Z,1002.68
2022-11-21T10:02:10.111Z,1002.69
2022-11-21T10:03:17.983Z,1002.71
2022-11-21T10:04:18.436Z,1002.72
2022-11-21T10:05:22.529Z,1002.71
2022-11-21T10:06:26.659Z,1002.68
2022-11-21T10:07:30.880Z,1002.68
2022-11-21T10:08:35.016Z,1002.70
2022-11-21T10:09:39.122Z,1002.70
2022-11-21T10:10:43.281Z,1002.68
2022-11-21T10:11:48.076Z,1002.67
2022-11-21T10:12:51.438Z,1002.69
2022-11-21T10:13:55.543Z,1002.72
2022-11-21T10:14:59.633Z,1002.72
2022-11-21T10:16:03.787Z,1002.72
2022-11-21T10:17:07.839Z,1002.72
2022-11-21T10:18:12.015Z,1002.72
2022-11-21T10:19:16.132Z,1002.73
2022-11-21T10:20:20.192Z,1002.72
2022-11-21T10:21:24.248Z,1002.67
2022-11-21T10:22:28.478Z,1002.66
2022-11-21T10:23:32.605Z,1002.65
2022-11-21T10:24:36.743Z,1002.64
2022-11-21T10:25:40.784Z,1002.65
2022-11-21T10:26:44.982Z,1002.63
2022-11-21T10:27:49.235Z,1002.63
2022-11-21T10:28:53.334Z,1002.63
2022-11-21T10:29:57.445Z,1002.60
2022-11-21T10:31:01.582Z,1002.60
2022-11-21T10:32:05.606Z,1002.59
2022-11-21T10:33:09.792Z,1002.59
2022-11-21T10:34:13.841Z,1002.61
2022-11-21T10:35:17.915Z,1002.59
2022-11-21T10:36:22.078Z,1002.60
2022-11-21T10:37:26.265Z,1002.60
2022-11-21T10:38:30.388Z,1002.58
2022-11-21T10:39:34.525Z,1002.61
2022-11-21T10:40:38.799Z,1002.63
2022-11-21T10:41:42.875Z,1002.64
2022-11-21T10:42:47.118Z,1002.63
2022-11-21T10:43:51.205Z,1002.64
2022-11-21T10:44:55.228Z,1002.61
2022-11-21T10:45:59.315Z,1002.59
2022-11-21T10:47:03.498Z,1002.58
2022-11-21T10:48:08.377Z,1002.57
2022-11-21T10:49:11.643Z,1002.56
2022-11-21T10:50:15.781Z,1002.57
2022-11-21T10:51:19.869Z,1002.57
2022-11-21T10:52:24.073Z,1002.54
2022-11-21T10:53:28.212Z,1002.55
2022-11-21T10:54:32.375Z,1002.53
2022-11-21T10:55:36.298Z,1002.55
2022-11-21T10:56:40.595Z,1002.54
2022-11-21T10:57:44.609Z,1002.50
2022-11-21T10:58:48.716Z,1002.51
2022-11-21T10:59:52.871Z,1002.50
2022-11-21T11:00:57.116Z,1002.49
2022-11-21T11:02:01.274Z,1002.50
2022-11-21T11:03:05.384Z,1002.51
2022-11-21T11:05:13.691Z,1002.47
2022-11-21T11:06:17.824Z,1002.47
2022-11-21T11:07:22.156Z,1002.46
2022-11-21T11:08:26.115Z,1002.51
2022-11-21T11:09:30.278Z,1002.48
2022-11-21T11:10:34.305Z,1002.52
2022-11-21T11:11:38.362Z,1002.52
2022-11-21T11:12:42.565Z,1002.54
2022-11-21T11:13:47.674Z,1002.53
2022-11-21T11:14:50.811Z,1002.54
2022-11-21T11:15:54.966Z,1002.55
2022-11-21T11:16:59.085Z,1002.52
2022-11-21T11:18:09.066Z,1002.50
2022-11-21T11:19:07.329Z,1002.49
2022-11-21T11:20:11.559Z,1002.49
2022-11-21T11:21:15.690Z,1002.49
2022-11-21T11:22:19.835Z,1002.44
2022-11-21T11:23:23.962Z,1002.45
2022-11-21T11:24:28.215Z,1002.46
2022-11-21T11:25:32.261Z,1002.45
2022-11-21T11:26:36.412Z,1002.47
2022-11-21T11:27:40.564Z,1002.47
2022-11-21T11:28:44.614Z,1002.47
2022-11-21T11:29:48.827Z,1002.50
2022-11-21T11:30:55.945Z,1002.47
2022-11-21T11:31:59.120Z,1002.48
2022-11-21T11:33:03.166Z,1002.48
2022-11-21T11:34:07.279Z,1002.50
2022-11-21T11:35:11.581Z,1002.50
2022-11-21T11:36:15.714Z,1002.50
2022-11-21T11:37:19.862Z,1002.48
2022-11-21T11:38:23.923Z,1002.50
2022-11-21T11:39:28.437Z,1002.49
2022-11-21T11:40:32.261Z,1002.52
2022-11-21T11:41:36.420Z,1002.54
2022-11-21T11:42:40.475Z,1002.55
2022-11-21T11:43:44.643Z,1002.53
2022-11-21T11:44:48.805Z,1002.54
2022-11-21T11:45:52.932Z,1002.55
2022-11-21T11:46:57.994Z,1002.58
2022-11-21T11:48:01.763Z,1002.57
2022-11-21T11:49:32.953Z,1002.57
2022-11-21T11:50:10.040Z,1002.58
2022-11-21T11:51:14.116Z,1002.61
2022-11-21T11:52:18.330Z,1002.63
2022-11-21T11:53:22.386Z,1002.62
2022-11-21T11:54:26.598Z,1002.66
2022-11-21T11:55:30.691Z,1002.66
2022-11-21T11:56:34.740Z,1002.67
2022-11-21T11:57:38.949Z,1002.67
2022-11-21T11:58:43.099Z,1002.65
2022-11-21T11:59:47.221Z,1002.64
2022-11-21T12:00:51.399Z,1002.63
2022-11-21T12:01:55.550Z,1002.62
2022-11-21T12:02:59.674Z,1002.63
2022-11-21T12:04:03.923Z,1002.63
2022-11-21T12:05:07.982Z,1002.63
2022-11-21T12:06:12.162Z,1002.61
2022-11-21T12:08:40.751Z,1002.61
2022-11-21T12:09:24.764Z,1002.62
2022-11-21T12:10:29.122Z,1002.60
2022-11-21T12:11:33.131Z,1002.59
2022-11-21T12:12:37.247Z,1002.57
2022-11-21T12:13:41.242Z,1002.56
2022-11-21T12:14:45.427Z,1002.57
2022-11-21T12:15:49.445Z,1002.58
2022-11-21T12:16:53.648Z,1002.61
2022-11-21T12:17:57.734Z,1002.59
2022-11-21T12:19:01.996Z,1002.61
2022-11-21T12:20:06.219Z,1002.58
2022-11-21T12:21:10.249Z,1002.60
2022-11-21T12:22:14.324Z,1002.59
2022-11-21T12:23:18.539Z,1002.55
2022-11-21T12:24:23.535Z,1002.51
2022-11-21T12:25:27.430Z,1002.49
2022-11-21T12:26:31.528Z,1002.49
2022-11-21T12:27:35.698Z,1002.50
2022-11-21T12:28:39.895Z,1002.52
2022-11-21T12:29:44.059Z,1002.51
2022-11-21T12:30:48.248Z,1002.51
2022-11-21T12:31:52.437Z,1002.50
2022-11-21T12:32:56.555Z,1002.49
2022-11-21T12:34:00.724Z,1002.51
2022-11-21T12:35:04.876Z,1002.50
2022-11-21T12:36:18.002Z,1002.46
2022-11-21T12:37:13.109Z,1002.48
2022-11-21T12:38:17.360Z,1002.48
2022-11-21T12:39:21.521Z,1002.50
2022-11-21T12:40:25.696Z,1002.52
2022-11-21T12:41:29.934Z,1002.50
2022-11-21T12:42:34.073Z,1002.50
2022-11-21T12:43:38.163Z,1002.50
2022-11-21T12:44:42.346Z,1002.54
2022-11-21T12:45:47.166Z,1002.50
2022-11-21T12:46:50.645Z,1002.52
2022-11-21T12:47:54.768Z,1002.49
2022-11-21T12:48:59.032Z,1002.51
2022-11-21T12:50:03.064Z,1002.48
2022-11-21T12:51:07.337Z,1002.46
2022-11-21T12:52:11.445Z,1002.46
2022-11-21T12:53:15.589Z,1002.44
2022-11-21T12:54:19.751Z,1002.45
2022-11-21T12:55:23.928Z,1002.45
2022-11-21T12:56:28.192Z,1002.46
2022-11-21T12:57:32.386Z,1002.46